Time;durP1;ratioP1;P1;durP2;ratioP2;P2;SDS_P1;SDS_P2;PMS_P1;PMS_P2;Temp;Humidity;BMP_temperature;BMP_pressure;BME280_temperature;BME280_humidity;BME280_pressure;Samples;Min_cycle;Max_cycle;Signal;HPM_P1;HPM_P2
2021/01/04 00:00:02;;;;;;;113.67;68.27;;;;;;;;;;4417453;32;20315;-54
2021/01/04 00:02:45;;;;;;;117.50;67.67;;;;;;;;;;4415785;32;20512;-57
2021/01/04 00:05:26;;;;;;;113.03;64.47;;;;;;;;;;4419048;32;20300;-55
2021/01/04 00:08:19;;;;;;;100.43;61.37;;;;;;;;;;4415011;32;20217;-55
2021/01/04 00:11:13;;;;;;;101.63;62.43;;;;;;;;;;4410886;32;20236;-54
2021/01/04 00:13:53;;;;;;;95.73;59.23;;;;;;;;;;4415278;32;20320;-55
2021/01/04 00:16:36;;;;;;;94.30;57.40;;;;;;;;;;4416823;32;20221;-55
2021/01/04 00:19:14;;;;;;;88.67;55.10;;;;;;;;;;4413052;32;20712;-55
2021/01/04 00:21:48;;;;;;;75.57;47.20;;;;;;;;;;4415827;32;20216;-55
2021/01/04 00:24:38;;;;;;;70.80;46.47;;;;;;;;;;4407552;32;20309;-55
2021/01/04 00:27:15;;;;;;;79.13;50.97;;;;;;;;;;4413816;32;20662;-55
2021/01/04 00:29:41;;;;;;;76.30;51.30;;;;;;;;;;4418746;32;20225;-56
2021/01/04 00:32:19;;;;;;;80.43;50.90;;;;;;;;;;4419697;32;20263;-55
2021/01/04 00:34:50;;;;;;;83.63;54.23;;;;;;;;;;4418914;32;20258;-55
2021/01/04 00:37:30;;;;;;;86.27;55.60;;;;;;;;;;4419449;32;20273;-55
2021/01/04 00:40:15;;;;;;;86.10;54.07;;;;;;;;;;4418479;32;20315;-55
2021/01/04 00:42:43;;;;;;;80.17;50.57;;;;;;;;;;4408146;32;20288;-56
2021/01/04 00:45:22;;;;;;;89.07;53.67;;;;;;;;;;4413114;32;20347;-56
2021/01/04 00:48:02;;;;;;;73.80;45.63;;;;;;;;;;4410484;32;20255;-54
2021/01/04 00:51:05;;;;;;;79.10;48.07;;;;;;;;;;4414745;32;20208;-55
2021/01/04 00:53:38;;;;;;;89.50;51.03;;;;;;;;;;4411219;32;20339;-55
2021/01/04 00:56:58;;;;;;;61.70;38.47;;;;;;;;;;4417824;32;20213;-55
2021/01/04 00:59:30;;;;;;;54.77;36.87;;;;;;;;;;4368871;32;20230;-56
2021/01/04 01:02:08;;;;;;;62.00;38.23;;;;;;;;;;4411088;32;20350;-55
2021/01/04 01:04:39;;;;;;;64.47;39.53;;;;;;;;;;4417619;32;20217;-56
2021/01/04 01:07:10;;;;;;;58.13;38.47;;;;;;;;;;4416769;32;20308;-55
2021/01/04 01:09:41;;;;;;;59.67;39.07;;;;;;;;;;4416146;32;20377;-54
2021/01/04 01:12:18;;;;;;;51.47;32.67;;;;;;;;;;4409080;32;20376;-55
2021/01/04 01:15:05;;;;;;;57.67;34.07;;;;;;;;;;4416173;32;20232;-55
2021/01/04 01:17:40;;;;;;;41.43;28.83;;;;;;;;;;4410115;32;20303;-55
2021/01/04 01:20:10;;;;;;;37.97;25.07;;;;;;;;;;4416157;32;20229;-54
2021/01/04 01:22:39;;;;;;;39.43;27.13;;;;;;;;;;4415261;32;20646;-55
2021/01/04 01:25:16;;;;;;;67.90;37.63;;;;;;;;;;4417112;32;20263;-54
2021/01/04 01:27:58;;;;;;;62.70;41.47;;;;;;;;;;4406368;32;20586;-54
2021/01/04 01:30:52;;;;;;;37.43;26.03;;;;;;;;;;4415164;32;20205;-54
2021/01/04 01:33:29;;;;;;;48.63;28.73;;;;;;;;;;4411518;32;20318;-55
2021/01/04 01:36:12;;;;;;;53.17;34.50;;;;;;;;;;4414414;32;20231;-54
2021/01/04 01:38:59;;;;;;;41.17;29.67;;;;;;;;;;4411509;32;20422;-54
2021/01/04 01:41:36;;;;;;;39.57;26.97;;;;;;;;;;4415666;32;20298;-55
2021/01/04 01:44:25;;;;;;;36.07;26.97;;;;;;;;;;4412799;32;20303;-55
2021/01/04 01:47:14;;;;;;;34.80;25.23;;;;;;;;;;4413289;32;20334;-55
2021/01/04 01:49:46;;;;;;;36.70;23.63;;;;;;;;;;4412325;32;20391;-56
2021/01/04 01:52:36;;;;;;;34.83;23.30;;;;;;;;;;4410902;32;20730;-55
2021/01/04 01:55:08;;;;;;;36.77;25.10;;;;;;;;;;4416041;32;20387;-55
2021/01/04 01:57:49;;;;;;;33.03;24.73;;;;;;;;;;4413584;32;20221;-55
2021/01/04 02:00:25;;;;;;;37.50;25.13;;;;;;;;;;4417662;32;20197;-55
2021/01/04 02:03:07;;;;;;;45.47;27.20;;;;;;;;;;4409192;32;20550;-55
2021/01/04 02:05:51;;;;;;;39.87;26.70;;;;;;;;;;4416969;32;20216;-55
2021/01/04 02:08:22;;;;;;;38.00;27.17;;;;;;;;;;4415788;32;20622;-55
2021/01/04 02:10:52;;;;;;;42.67;27.83;;;;;;;;;;4417288;32;20209;-55
2021/01/04 02:13:26;;;;;;;44.73;29.30;;;;;;;;;;4409582;32;20221;-55
2021/01/04 02:16:03;;;;;;;35.43;27.37;;;;;;;;;;4417039;32;20288;-54
2021/01/04 02:18:39;;;;;;;42.37;28.23;;;;;;;;;;4418262;32;20275;-55
2021/01/04 02:21:21;;;;;;;40.63;28.03;;;;;;;;;;4416650;32;20237;-54
2021/01/04 02:24:11;;;;;;;56.53;41.30;;;;;;;;;;4411589;32;20409;-55
2021/01/04 02:26:41;;;;;;;46.57;32.00;;;;;;;;;;4417088;32;20296;-55
2021/01/04 02:29:12;;;;;;;46.93;32.03;;;;;;;;;;4408227;32;20245;-55
2021/01/04 02:31:40;;;;;;;50.27;31.97;;;;;;;;;;4413568;32;20275;-55
2021/01/04 02:34:12;;;;;;;51.77;34.67;;;;;;;;;;4417086;32;20292;-55
2021/01/04 02:36:42;;;;;;;78.47;43.97;;;;;;;;;;4414191;32;20221;-55
2021/01/04 02:39:10;;;;;;;62.40;39.30;;;;;;;;;;4416511;32;21134;-55
2021/01/04 02:42:05;;;;;;;56.50;38.93;;;;;;;;;;4416231;32;20264;-55
2021/01/04 02:44:31;;;;;;;61.77;34.50;;;;;;;;;;4413284;32;20313;-55
2021/01/04 02:47:05;;;;;;;58.03;35.57;;;;;;;;;;4417059;32;20279;-54
2021/01/04 02:50:00;;;;;;;53.10;35.80;;;;;;;;;;4416739;32;20234;-55
2021/01/04 02:52:50;;;;;;;48.40;31.47;;;;;;;;;;4417266;32;20202;-55
2021/01/04 02:55:27;;;;;;;43.23;28.80;;;;;;;;;;4411871;32;20221;-55
2021/01/04 02:58:08;;;;;;;51.57;34.90;;;;;;;;;;4417201;32;20208;-55
2021/01/04 03:00:34;;;;;;;51.70;35.37;;;;;;;;;;4416049;32;20242;-55
2021/01/04 03:03:04;;;;;;;45.03;29.97;;;;;;;;;;4416827;32;20643;-56
2021/01/04 03:05:30;;;;;;;41.23;26.13;;;;;;;;;;4416570;32;20228;-55
2021/01/04 03:07:58;;;;;;;41.60;27.80;;;;;;;;;;4416830;32;20311;-55
2021/01/04 03:10:26;;;;;;;34.93;24.83;;;;;;;;;;4411077;32;20228;-56
2021/01/04 03:12:59;;;;;;;32.80;23.87;;;;;;;;;;4411319;32;20301;-55
2021/01/04 03:15:40;;;;;;;33.23;24.37;;;;;;;;;;4412024;32;20313;-55
2021/01/04 03:18:24;;;;;;;36.93;25.33;;;;;;;;;;4417185;32;20275;-55
2021/01/04 03:20:50;;;;;;;41.30;30.23;;;;;;;;;;4416137;32;20193;-55
2021/01/04 03:23:16;;;;;;;35.63;26.27;;;;;;;;;;4416968;32;20388;-55
2021/01/04 03:25:48;;;;;;;33.70;26.10;;;;;;;;;;4414902;32;20205;-54
2021/01/04 03:28:21;;;;;;;41.47;28.17;;;;;;;;;;4414208;32;20212;-55
2021/01/04 03:30:47;;;;;;;43.50;28.87;;;;;;;;;;4414662;32;20295;-54
2021/01/04 03:33:12;;;;;;;38.27;29.17;;;;;;;;;;4414196;32;20368;-55
2021/01/04 03:35:38;;;;;;;38.13;27.33;;;;;;;;;;4414422;32;20624;-55
2021/01/04 03:38:03;;;;;;;40.93;28.03;;;;;;;;;;4408815;32;20402;-55
2021/01/04 03:40:29;;;;;;;39.80;25.33;;;;;;;;;;4414593;32;20232;-55
2021/01/04 03:42:54;;;;;;;41.23;29.37;;;;;;;;;;4415020;32;20625;-55
2021/01/04 03:45:20;;;;;;;42.60;27.80;;;;;;;;;;4413869;32;20304;-55
2021/01/04 03:47:45;;;;;;;36.97;25.77;;;;;;;;;;4414723;32;20651;-56
2021/01/04 03:50:14;;;;;;;27.27;20.50;;;;;;;;;;4415099;32;20205;-55
2021/01/04 03:52:40;;;;;;;26.97;19.60;;;;;;;;;;4417132;32;20241;-55
2021/01/04 03:55:06;;;;;;;30.43;22.50;;;;;;;;;;4416064;32;20833;-55
2021/01/04 03:57:31;;;;;;;33.70;24.20;;;;;;;;;;4417102;32;20287;-56
2021/01/04 03:59:56;;;;;;;43.57;29.60;;;;;;;;;;4417245;32;20239;-54
2021/01/04 04:02:22;;;;;;;35.50;27.93;;;;;;;;;;4419902;32;20729;-55
2021/01/04 04:04:47;;;;;;;32.27;24.03;;;;;;;;;;4417530;32;20309;-55
2021/01/04 04:07:13;;;;;;;27.20;19.87;;;;;;;;;;4416288;32;20292;-55
2021/01/04 04:09:38;;;;;;;29.67;21.60;;;;;;;;;;4415569;32;20229;-55
2021/01/04 04:12:04;;;;;;;30.83;21.33;;;;;;;;;;4413615;32;20249;-55
2021/01/04 04:14:29;;;;;;;32.03;23.03;;;;;;;;;;4418891;32;20526;-55
2021/01/04 04:16:55;;;;;;;31.27;22.73;;;;;;;;;;4419757;32;20316;-55
2021/01/04 04:19:20;;;;;;;31.67;24.27;;;;;;;;;;4416800;32;20403;-56
2021/01/04 04:21:52;;;;;;;31.07;19.87;;;;;;;;;;4419052;32;20622;-55
2021/01/04 04:24:19;;;;;;;26.47;20.53;;;;;;;;;;4418254;32;20739;-55
2021/01/04 04:26:45;;;;;;;34.33;24.27;;;;;;;;;;4419204;32;20276;-55
2021/01/04 04:29:11;;;;;;;32.67;23.00;;;;;;;;;;4418447;32;20197;-54
2021/01/04 04:31:47;;;;;;;32.47;23.47;;;;;;;;;;4419247;32;20744;-56
2021/01/04 04:34:13;;;;;;;31.07;23.00;;;;;;;;;;4418770;32;20689;-55
2021/01/04 04:36:43;;;;;;;30.93;24.00;;;;;;;;;;4417704;32;20272;-54
2021/01/04 04:39:11;;;;;;;25.10;18.30;;;;;;;;;;4418791;32;20357;-54
2021/01/04 04:41:45;;;;;;;26.03;19.57;;;;;;;;;;4418438;32;20193;-55
2021/01/04 04:44:20;;;;;;;32.50;23.17;;;;;;;;;;4419302;32;20236;-54
2021/01/04 04:47:23;;;;;;;47.57;29.60;;;;;;;;;;4415420;32;20549;-55
2021/01/04 04:49:54;;;;;;;41.00;26.33;;;;;;;;;;4385577;32;20240;-55
2021/01/04 04:52:38;;;;;;;45.37;26.50;;;;;;;;;;4417463;32;20198;-55
2021/01/04 04:55:15;;;;;;;42.33;26.87;;;;;;;;;;4408188;32;20387;-55
2021/01/04 04:57:50;;;;;;;38.10;25.63;;;;;;;;;;4419506;32;20240;-55
2021/01/04 05:00:37;;;;;;;43.77;27.13;;;;;;;;;;4410811;32;20556;-55
2021/01/04 05:03:15;;;;;;;70.73;41.30;;;;;;;;;;4414557;32;20197;-55
2021/01/04 05:06:12;;;;;;;59.93;34.83;;;;;;;;;;4414355;32;20316;-54
2021/01/04 05:09:05;;;;;;;55.93;33.40;;;;;;;;;;4384907;32;20224;-55
2021/01/04 05:11:36;;;;;;;75.77;45.80;;;;;;;;;;4405291;32;20206;-54
2021/01/04 05:14:08;;;;;;;51.10;36.37;;;;;;;;;;4419016;32;20339;-55
2021/01/04 05:16:36;;;;;;;33.83;24.40;;;;;;;;;;4418289;32;20313;-54
2021/01/04 05:19:26;;;;;;;44.83;33.20;;;;;;;;;;4418054;32;20802;-56
2021/01/04 05:22:19;;;;;;;58.27;37.90;;;;;;;;;;4418069;32;20197;-55
2021/01/04 05:24:52;;;;;;;71.20;43.13;;;;;;;;;;4417975;32;20256;-55
2021/01/04 05:27:40;;;;;;;57.23;35.47;;;;;;;;;;4416221;32;20197;-54
2021/01/04 05:30:50;;;;;;;62.60;39.93;;;;;;;;;;4411079;32;20304;-61
2021/01/04 05:33:29;;;;;;;74.90;42.80;;;;;;;;;;4378553;32;20209;-55
2021/01/04 05:36:16;;;;;;;63.47;39.93;;;;;;;;;;4417030;32;20231;-54
2021/01/04 05:38:59;;;;;;;90.10;57.67;;;;;;;;;;4418243;32;20213;-56
2021/01/04 05:41:45;;;;;;;94.27;55.63;;;;;;;;;;4416729;32;20273;-55
2021/01/04 05:44:29;;;;;;;87.23;47.13;;;;;;;;;;4406755;32;20231;-55
2021/01/04 05:47:21;;;;;;;77.33;45.63;;;;;;;;;;4418086;32;20178;-55
2021/01/04 05:50:06;;;;;;;58.70;37.10;;;;;;;;;;4417192;32;20237;-54
2021/01/04 05:52:33;;;;;;;77.47;49.33;;;;;;;;;;4417861;32;20213;-55
2021/01/04 05:54:59;;;;;;;103.50;62.70;;;;;;;;;;4412680;32;20671;-55
2021/01/04 05:57:24;;;;;;;127.83;77.80;;;;;;;;;;4418678;32;20268;-55
2021/01/04 05:59:58;;;;;;;116.93;76.83;;;;;;;;;;4411854;32;20290;-55
2021/01/04 06:02:27;;;;;;;120.73;70.90;;;;;;;;;;4417638;32;20235;-55
2021/01/04 06:05:05;;;;;;;86.63;53.60;;;;;;;;;;4417259;32;20278;-55
2021/01/04 06:07:37;;;;;;;75.27;47.07;;;;;;;;;;4414937;32;20216;-55
2021/01/04 06:10:07;;;;;;;50.03;34.33;;;;;;;;;;4417517;32;20264;-55
2021/01/04 06:12:43;;;;;;;54.07;34.40;;;;;;;;;;4417967;32;20735;-55
2021/01/04 06:15:09;;;;;;;51.87;37.20;;;;;;;;;;4411305;32;20223;-56
2021/01/04 06:17:39;;;;;;;55.17;34.97;;;;;;;;;;4417965;32;20345;-55
2021/01/04 06:20:49;;;;;;;44.77;30.80;;;;;;;;;;4417223;32;20431;-56
2021/01/04 06:23:20;;;;;;;43.40;30.50;;;;;;;;;;4389582;32;20685;-55
2021/01/04 06:25:56;;;;;;;50.97;33.97;;;;;;;;;;4416660;32;20337;-55
2021/01/04 06:28:22;;;;;;;46.90;30.40;;;;;;;;;;4416861;32;20213;-55
2021/01/04 06:31:02;;;;;;;47.63;31.23;;;;;;;;;;4401047;32;20225;-56
2021/01/04 06:33:29;;;;;;;66.37;40.50;;;;;;;;;;4417171;32;20205;-55
2021/01/04 06:36:07;;;;;;;62.87;43.60;;;;;;;;;;4416966;32;20285;-55
2021/01/04 06:38:40;;;;;;;63.70;44.13;;;;;;;;;;4417783;32;20209;-55
2021/01/04 06:41:28;;;;;;;68.77;45.57;;;;;;;;;;4416677;32;20316;-55
2021/01/04 06:43:54;;;;;;;75.10;50.60;;;;;;;;;;4407073;32;20748;-55
2021/01/04 06:46:58;;;;;;;75.70;50.43;;;;;;;;;;4415409;32;20698;-56
2021/01/04 06:49:29;;;;;;;88.10;59.40;;;;;;;;;;4410194;32;20290;-56
2021/01/04 06:52:36;;;;;;;100.87;63.13;;;;;;;;;;4415882;32;20213;-55
2021/01/04 06:55:18;;;;;;;104.00;67.37;;;;;;;;;;4412623;32;20241;-55
2021/01/04 06:58:21;;;;;;;114.40;74.17;;;;;;;;;;4417198;32;20290;-55
2021/01/04 07:01:15;;;;;;;97.67;64.53;;;;;;;;;;4414517;32;20283;-55
2021/01/04 07:04:05;;;;;;;125.07;79.93;;;;;;;;;;4417423;32;20260;-56
2021/01/04 07:07:01;;;;;;;130.00;90.13;;;;;;;;;;4415309;32;20285;-55
2021/01/04 07:10:05;;;;;;;127.97;85.53;;;;;;;;;;4415409;32;20291;-55
2021/01/04 07:12:57;;;;;;;125.40;83.80;;;;;;;;;;4394536;32;20611;-55
2021/01/04 07:15:30;;;;;;;105.07;68.63;;;;;;;;;;4417172;32;20221;-55
2021/01/04 07:18:16;;;;;;;110.47;74.20;;;;;;;;;;4417108;32;20299;-55
2021/01/04 07:20:50;;;;;;;97.00;66.90;;;;;;;;;;4420826;32;20218;-56
2021/01/04 07:23:41;;;;;;;149.77;95.20;;;;;;;;;;4414688;32;20224;-56
2021/01/04 07:26:15;;;;;;;316.93;159.13;;;;;;;;;;4416930;32;20284;-56
2021/01/04 07:29:13;;;;;;;191.17;107.00;;;;;;;;;;4405046;32;20247;-55
2021/01/04 07:31:45;;;;;;;101.33;64.57;;;;;;;;;;4413864;32;20291;-55
2021/01/04 07:34:19;;;;;;;85.07;61.30;;;;;;;;;;4413700;32;20686;-55
2021/01/04 07:37:22;;;;;;;72.33;46.40;;;;;;;;;;4417397;32;20227;-56
2021/01/04 07:39:58;;;;;;;91.90;59.50;;;;;;;;;;4419621;32;20296;-55
2021/01/04 07:42:38;;;;;;;92.13;65.67;;;;;;;;;;4420020;32;20270;-56
2021/01/04 07:45:31;;;;;;;104.13;64.80;;;;;;;;;;4419619;32;20385;-55
2021/01/04 07:48:05;;;;;;;78.10;51.87;;;;;;;;;;4417280;32;20424;-55
2021/01/04 07:50:59;;;;;;;86.03;59.67;;;;;;;;;;4414682;32;20538;-56
2021/01/04 07:53:52;;;;;;;107.20;69.90;;;;;;;;;;4407176;32;20284;-55
2021/01/04 07:56:41;;;;;;;100.63;66.77;;;;;;;;;;4418097;32;20271;-55
2021/01/04 07:59:44;;;;;;;97.37;66.30;;;;;;;;;;4412911;32;20217;-55
2021/01/04 08:02:46;;;;;;;102.43;64.80;;;;;;;;;;4412163;32;20580;-55
2021/01/04 08:05:27;;;;;;;68.67;47.37;;;;;;;;;;4418997;32;20225;-55
2021/01/04 08:08:14;;;;;;;69.90;50.73;;;;;;;;;;4418409;32;20329;-55
2021/01/04 08:11:26;;;;;;;204.47;105.80;;;;;;;;;;4416338;32;20233;-55
2021/01/04 08:13:57;;;;;;;64.93;47.20;;;;;;;;;;4415800;32;20275;-55
2021/01/04 08:16:37;;;;;;;77.43;55.67;;;;;;;;;;4417954;32;20381;-55
2021/01/04 08:19:05;;;;;;;84.00;60.17;;;;;;;;;;4417752;32;20402;-55
2021/01/04 08:21:47;;;;;;;93.73;61.40;;;;;;;;;;4413760;32;20307;-55
2021/01/04 08:24:38;;;;;;;82.33;54.97;;;;;;;;;;4418748;32;20209;-55
2021/01/04 08:27:06;;;;;;;87.07;58.37;;;;;;;;;;4419258;32;20261;-56
2021/01/04 08:29:32;;;;;;;89.90;60.90;;;;;;;;;;4419282;32;20213;-55
2021/01/04 08:32:15;;;;;;;111.60;71.43;;;;;;;;;;4414171;32;20291;-54
2021/01/04 08:34:44;;;;;;;142.83;89.63;;;;;;;;;;4410331;32;20209;-56
2021/01/04 08:37:11;;;;;;;125.37;81.90;;;;;;;;;;4419273;32;20238;-54
2021/01/04 08:39:42;;;;;;;117.47;75.73;;;;;;;;;;4419041;32;20213;-55
2021/01/04 08:42:23;;;;;;;114.90;76.50;;;;;;;;;;4418870;32;20210;-55
2021/01/04 08:45:10;;;;;;;115.23;73.27;;;;;;;;;;4419080;32;20244;-56
2021/01/04 08:47:49;;;;;;;133.40;79.63;;;;;;;;;;4414275;32;20197;-55
2021/01/04 08:50:23;;;;;;;150.53;92.30;;;;;;;;;;4411697;32;20217;-55
2021/01/04 08:52:56;;;;;;;165.40;95.30;;;;;;;;;;4414919;32;20273;-56
2021/01/04 08:55:31;;;;;;;147.47;88.97;;;;;;;;;;4418765;32;20233;-56
2021/01/04 08:58:12;;;;;;;133.20;85.13;;;;;;;;;;4418803;32;20217;-55
2021/01/04 09:00:38;;;;;;;123.03;83.07;;;;;;;;;;4414476;32;20616;-56
2021/01/04 09:03:04;;;;;;;141.37;91.50;;;;;;;;;;4419151;32;20327;-55
2021/01/04 09:05:40;;;;;;;160.40;101.10;;;;;;;;;;4406952;32;20224;-54
2021/01/04 09:08:08;;;;;;;167.97;106.63;;;;;;;;;;4418030;32;20217;-55
2021/01/04 09:10:47;;;;;;;178.10;115.90;;;;;;;;;;4414084;32;20733;-55
2021/01/04 09:13:21;;;;;;;190.53;119.20;;;;;;;;;;4418772;32;20201;-56
2021/01/04 09:15:47;;;;;;;175.33;118.60;;;;;;;;;;4415532;32;20303;-55
2021/01/04 09:18:29;;;;;;;204.60;123.67;;;;;;;;;;4418308;32;20288;-55
2021/01/04 09:21:05;;;;;;;184.90;105.87;;;;;;;;;;4415907;32;20687;-55
2021/01/04 09:23:34;;;;;;;151.17;88.77;;;;;;;;;;4413106;32;20666;-55
2021/01/04 09:26:02;;;;;;;147.87;89.63;;;;;;;;;;4413220;32;20600;-55
2021/01/04 09:28:36;;;;;;;143.40;86.23;;;;;;;;;;4418792;32;20753;-55
2021/01/04 09:31:01;;;;;;;134.90;80.47;;;;;;;;;;4408980;32;20367;-57
2021/01/04 09:33:27;;;;;;;120.83;74.67;;;;;;;;;;4409134;32;20747;-55
2021/01/04 09:36:02;;;;;;;147.53;86.70;;;;;;;;;;4417535;32;20213;-55
2021/01/04 09:38:28;;;;;;;156.53;94.40;;;;;;;;;;4418436;32;20224;-54
2021/01/04 09:40:56;;;;;;;175.77;101.00;;;;;;;;;;4417708;32;20217;-56
2021/01/04 09:43:27;;;;;;;213.57;130.20;;;;;;;;;;4418290;32;20244;-55
2021/01/04 09:46:06;;;;;;;197.00;118.50;;;;;;;;;;4415621;32;20225;-55
2021/01/04 09:48:37;;;;;;;184.60;109.77;;;;;;;;;;4410686;32;20662;-56
2021/01/04 09:51:05;;;;;;;169.87;101.80;;;;;;;;;;4417036;32;20271;-55
2021/01/04 09:53:37;;;;;;;166.90;106.77;;;;;;;;;;4417951;32;20233;-56
2021/01/04 09:56:11;;;;;;;162.17;104.97;;;;;;;;;;4416968;32;20209;-55
2021/01/04 09:58:37;;;;;;;150.87;100.00;;;;;;;;;;4413125;32;20255;-55
2021/01/04 10:01:15;;;;;;;141.70;87.10;;;;;;;;;;4417826;32;20599;-55
2021/01/04 10:03:52;;;;;;;134.33;86.70;;;;;;;;;;4417413;32;20221;-55
2021/01/04 10:06:18;;;;;;;142.63;86.20;;;;;;;;;;4417540;32;20271;-55
2021/01/04 10:08:45;;;;;;;112.97;76.00;;;;;;;;;;4408273;32;20590;-54
2021/01/04 10:11:18;;;;;;;106.87;68.27;;;;;;;;;;4413691;32;20205;-54
2021/01/04 10:13:43;;;;;;;97.10;64.37;;;;;;;;;;4417550;32;20305;-55
2021/01/04 10:16:16;;;;;;;91.07;62.57;;;;;;;;;;4416524;32;20777;-55
2021/01/04 10:18:57;;;;;;;85.67;56.20;;;;;;;;;;4417771;32;20251;-55
2021/01/04 10:21:28;;;;;;;78.27;53.80;;;;;;;;;;4416169;32;20536;-55
2021/01/04 10:24:04;;;;;;;135.83;77.67;;;;;;;;;;4416191;32;20635;-55
2021/01/04 10:26:37;;;;;;;95.03;57.90;;;;;;;;;;4415153;32;20220;-56
2021/01/04 10:29:05;;;;;;;94.03;53.17;;;;;;;;;;4409550;32;20367;-54
2021/01/04 10:31:30;;;;;;;106.93;60.63;;;;;;;;;;4414123;32;20229;-56
2021/01/04 10:34:16;;;;;;;77.03;50.90;;;;;;;;;;4410087;32;20440;-55
2021/01/04 10:36:52;;;;;;;97.83;61.80;;;;;;;;;;4417333;32;20295;-56
2021/01/04 10:39:25;;;;;;;107.83;68.40;;;;;;;;;;4409121;32;20684;-55
2021/01/04 10:42:05;;;;;;;88.60;56.13;;;;;;;;;;4417081;32;20197;-55
2021/01/04 10:44:31;;;;;;;115.07;71.40;;;;;;;;;;4417108;32;20621;-55
2021/01/04 10:47:06;;;;;;;125.50;77.07;;;;;;;;;;4417150;32;20351;-55
2021/01/04 10:49:34;;;;;;;108.00;70.70;;;;;;;;;;4415309;32;20565;-55
2021/01/04 10:52:01;;;;;;;107.20;68.83;;;;;;;;;;4403536;32;20273;-57
2021/01/04 10:54:41;;;;;;;99.93;67.13;;;;;;;;;;4416784;32;20796;-55
2021/01/04 10:57:40;;;;;;;102.23;66.63;;;;;;;;;;4416774;32;20770;-55
2021/01/04 11:00:14;;;;;;;82.80;58.97;;;;;;;;;;4407391;32;20216;-55
2021/01/04 11:02:45;;;;;;;80.97;54.57;;;;;;;;;;4404158;32;20222;-56
2021/01/04 11:05:13;;;;;;;75.10;51.43;;;;;;;;;;4409281;32;20744;-55
2021/01/04 11:07:39;;;;;;;107.90;69.07;;;;;;;;;;4415347;32;20271;-54
2021/01/04 11:10:28;;;;;;;108.13;69.13;;;;;;;;;;4415606;32;20620;-55
2021/01/04 11:12:58;;;;;;;90.80;60.73;;;;;;;;;;4420339;32;20235;-55
2021/01/04 11:15:30;;;;;;;57.27;42.57;;;;;;;;;;4419037;32;20221;-55
2021/01/04 11:18:02;;;;;;;57.83;41.53;;;;;;;;;;4410109;32;20264;-56
2021/01/04 11:20:27;;;;;;;52.20;40.30;;;;;;;;;;4419863;32;20684;-55
2021/01/04 11:23:08;;;;;;;60.50;45.67;;;;;;;;;;4418969;32;20307;-55
2021/01/04 11:25:34;;;;;;;96.13;56.50;;;;;;;;;;4419788;32;20251;-55
2021/01/04 11:28:00;;;;;;;102.70;57.63;;;;;;;;;;4415284;32;20323;-56
2021/01/04 11:30:29;;;;;;;92.33;60.23;;;;;;;;;;4415174;32;20253;-56
2021/01/04 11:32:56;;;;;;;89.40;60.53;;;;;;;;;;4417157;32;20262;-56
2021/01/04 11:35:21;;;;;;;90.20;59.63;;;;;;;;;;4416786;32;20796;-56
2021/01/04 11:37:47;;;;;;;84.03;58.00;;;;;;;;;;4420210;32;20322;-57
2021/01/04 11:40:13;;;;;;;83.03;54.67;;;;;;;;;;4418240;32;20588;-55
2021/01/04 11:42:39;;;;;;;68.93;45.90;;;;;;;;;;4420804;32;20303;-57
2021/01/04 11:45:09;;;;;;;120.60;78.33;;;;;;;;;;4418190;32;20344;-55
2021/01/04 11:47:35;;;;;;;49.47;36.07;;;;;;;;;;4403785;32;20357;-55
2021/01/04 11:50:00;;;;;;;47.10;31.40;;;;;;;;;;4403943;32;20312;-56
2021/01/04 11:52:26;;;;;;;33.87;21.37;;;;;;;;;;4418914;32;20402;-56
2021/01/04 11:54:51;;;;;;;29.63;21.10;;;;;;;;;;4419072;32;20237;-54
2021/01/04 11:57:17;;;;;;;32.67;20.40;;;;;;;;;;4420542;32;20669;-56
2021/01/04 11:59:42;;;;;;;27.30;18.27;;;;;;;;;;4420255;32;20291;-55
2021/01/04 12:02:08;;;;;;;27.57;17.60;;;;;;;;;;4419882;32;20336;-55
2021/01/04 12:04:34;;;;;;;35.30;18.43;;;;;;;;;;4411723;32;20233;-55
2021/01/04 12:06:59;;;;;;;23.93;14.50;;;;;;;;;;4419424;32;20325;-55
2021/01/04 12:09:25;;;;;;;23.90;13.67;;;;;;;;;;4420013;32;20678;-56
2021/01/04 12:11:50;;;;;;;23.27;14.20;;;;;;;;;;4406845;32;20323;-56
2021/01/04 12:14:17;;;;;;;21.27;15.13;;;;;;;;;;4418639;32;20765;-55
2021/01/04 12:16:43;;;;;;;23.67;12.60;;;;;;;;;;4416241;32;20284;-55
2021/01/04 12:19:09;;;;;;;28.40;15.53;;;;;;;;;;4420167;32;20312;-55
2021/01/04 12:21:34;;;;;;;23.73;16.33;;;;;;;;;;4407613;32;20345;-56
2021/01/04 12:24:00;;;;;;;30.67;19.27;;;;;;;;;;4413507;32;20615;-56
2021/01/04 12:26:27;;;;;;;26.23;17.90;;;;;;;;;;4413941;32;20292;-56
2021/01/04 12:28:53;;;;;;;32.93;19.80;;;;;;;;;;4405926;32;20270;-56
2021/01/04 12:31:19;;;;;;;32.23;18.30;;;;;;;;;;4409922;32;20694;-55
2021/01/04 12:33:45;;;;;;;27.03;17.37;;;;;;;;;;4403319;32;20763;-55
2021/01/04 12:36:22;;;;;;;27.03;14.30;;;;;;;;;;4404671;32;20272;-56
2021/01/04 12:38:49;;;;;;;34.50;20.23;;;;;;;;;;4404836;32;20221;-56
2021/01/04 12:41:15;;;;;;;24.87;17.80;;;;;;;;;;4406166;32;20276;-55
2021/01/04 12:43:43;;;;;;;30.40;17.93;;;;;;;;;;4414197;32;20225;-59
2021/01/04 12:46:08;;;;;;;27.57;12.80;;;;;;;;;;4411012;32;20218;-55
2021/01/04 12:48:34;;;;;;;37.77;22.17;;;;;;;;;;4410689;32;20300;-56
2021/01/04 12:51:00;;;;;;;127.40;70.33;;;;;;;;;;4411352;32;20324;-55
2021/01/04 12:53:25;;;;;;;29.77;17.30;;;;;;;;;;4410873;32;20284;-55
2021/01/04 12:55:51;;;;;;;38.47;18.00;;;;;;;;;;4412326;32;20330;-55
2021/01/04 12:58:17;;;;;;;27.80;16.93;;;;;;;;;;4405650;32;20366;-56
2021/01/04 13:00:44;;;;;;;29.93;18.87;;;;;;;;;;4413013;32;20604;-56
2021/01/04 13:03:11;;;;;;;62.27;34.80;;;;;;;;;;4418822;32;20217;-57
2021/01/04 13:05:36;;;;;;;81.07;48.50;;;;;;;;;;4419443;32;20299;-55
2021/01/04 13:08:02;;;;;;;87.03;51.53;;;;;;;;;;4419351;32;20283;-56
2021/01/04 13:10:28;;;;;;;71.00;42.77;;;;;;;;;;4416454;32;20229;-55
2021/01/04 13:12:53;;;;;;;82.73;49.07;;;;;;;;;;4419616;32;20353;-55
2021/01/04 13:15:19;;;;;;;159.20;71.97;;;;;;;;;;4419475;32;20299;-56
2021/01/04 13:17:44;;;;;;;187.50;78.33;;;;;;;;;;4418795;32;20370;-56
2021/01/04 13:20:11;;;;;;;125.47;66.27;;;;;;;;;;4418716;32;20316;-55
2021/01/04 13:22:36;;;;;;;98.53;57.40;;;;;;;;;;4417673;32;20879;-56
2021/01/04 13:25:03;;;;;;;101.40;54.33;;;;;;;;;;4416062;32;20308;-55
2021/01/04 13:27:29;;;;;;;80.93;46.90;;;;;;;;;;4416279;32;20220;-57
2021/01/04 13:29:54;;;;;;;57.20;33.83;;;;;;;;;;4418843;32;20272;-55
2021/01/04 13:32:20;;;;;;;59.90;37.43;;;;;;;;;;4419202;32;20268;-56
2021/01/04 13:34:46;;;;;;;57.33;34.23;;;;;;;;;;4411495;32;20240;-56
2021/01/04 13:37:14;;;;;;;54.53;35.80;;;;;;;;;;4418054;32;20355;-57
2021/01/04 13:39:40;;;;;;;60.13;34.90;;;;;;;;;;4417721;32;20325;-56
2021/01/04 13:42:05;;;;;;;45.73;27.10;;;;;;;;;;4406620;32;20300;-57
2021/01/04 13:44:31;;;;;;;58.17;36.83;;;;;;;;;;4404267;32;20635;-56
2021/01/04 13:47:04;;;;;;;80.13;49.57;;;;;;;;;;4402469;32;20332;-55
2021/01/04 13:49:29;;;;;;;133.43;87.97;;;;;;;;;;4402548;32;20265;-57
2021/01/04 13:51:55;;;;;;;120.53;72.57;;;;;;;;;;4416670;32;20630;-56
2021/01/04 13:54:20;;;;;;;124.73;81.63;;;;;;;;;;4418801;32;20351;-55
2021/01/04 13:56:51;;;;;;;141.43;96.27;;;;;;;;;;4419017;32;20582;-55
2021/01/04 13:59:17;;;;;;;94.83;62.60;;;;;;;;;;4418755;32;20392;-56
2021/01/04 14:01:43;;;;;;;92.10;60.63;;;;;;;;;;4418514;32;20303;-57
2021/01/04 14:04:13;;;;;;;88.97;59.60;;;;;;;;;;4418499;32;20319;-56
2021/01/04 14:06:44;;;;;;;93.83;59.47;;;;;;;;;;4419060;32;20235;-55
2021/01/04 14:09:12;;;;;;;85.93;56.13;;;;;;;;;;4418240;32;20237;-57
2021/01/04 14:11:37;;;;;;;105.00;71.13;;;;;;;;;;4405388;32;20233;-57
2021/01/04 14:14:04;;;;;;;111.17;75.90;;;;;;;;;;4418716;32;20240;-56
2021/01/04 14:16:29;;;;;;;133.23;86.90;;;;;;;;;;4413577;32;20237;-56
2021/01/04 14:18:55;;;;;;;143.87;90.20;;;;;;;;;;4415883;32;20248;-56
2021/01/04 14:21:22;;;;;;;137.60;89.00;;;;;;;;;;4408282;32;20342;-57
2021/01/04 14:23:49;;;;;;;125.87;83.80;;;;;;;;;;4403569;32;20256;-56
2021/01/04 14:26:29;;;;;;;125.63;86.57;;;;;;;;;;4406500;32;20304;-57
2021/01/04 14:28:55;;;;;;;134.43;89.70;;;;;;;;;;4412149;32;20237;-55
2021/01/04 14:31:22;;;;;;;128.87;87.77;;;;;;;;;;4412831;32;20356;-56
2021/01/04 14:33:48;;;;;;;125.57;84.23;;;;;;;;;;4420056;32;20225;-56
2021/01/04 14:36:15;;;;;;;122.07;84.00;;;;;;;;;;4419689;32;20275;-56
2021/01/04 14:38:40;;;;;;;86.03;59.63;;;;;;;;;;4420026;32;20282;-56
2021/01/04 14:41:07;;;;;;;99.13;59.80;;;;;;;;;;4420140;32;20672;-55
2021/01/04 14:43:32;;;;;;;141.40;76.37;;;;;;;;;;4420131;32;20252;-56
2021/01/04 14:45:58;;;;;;;163.27;97.00;;;;;;;;;;4419891;32;20243;-57
2021/01/04 14:48:25;;;;;;;163.57;104.77;;;;;;;;;;4419256;32;20249;-56
2021/01/04 14:50:51;;;;;;;166.80;105.73;;;;;;;;;;4407578;32;20221;-56
2021/01/04 14:53:16;;;;;;;155.00;104.93;;;;;;;;;;4409841;32;20338;-57